Latest Coastal Weather Observations for Burnie Port

IDT60701

Issued at 4:51 am EDT Wednesday 10 February 2016 (issued every 10 minutes, with the page automatically refreshed every 10 minutes)

About coastal observations | Map of coastal stations | Coastal observations for TAS | Marine services | Other Formats
Station Details ID: 091344 Name: BURNIE NTC AWS Lat: -41.05 Lon: 145.91 Height: 0.0 m
Data from the previous 72 hours. | See also: Recent months for locations in Tasmania
Date/Time
EDT
Temp

°C
Wind Pressure Rain
since 9am
mm
Weather Cloud Vis
km
Sea
Height
m
Swell
Dir
 
Speed
knots
Gust
knots
hPa Trend Height
m
Period
s
Dir
10/04:30am 16.0 SSW 4 5 1013.0 - - - - - - - - -
10/04:00am 16.2 SSW 4 5 1013.2 - - - - - - - - -
10/03:30am 17.1 SW 4 5 1013.3 - - - - - - - - -
10/03:00am 17.2 SSW 3 4 1013.4 - - - - - - - - -
10/02:30am 17.2 SSW 5 6 1013.6 - - - - - - - - -
10/02:00am 17.5 SSW 5 8 1014.0 - - - - - - - - -
10/01:30am 17.5 SSW 4 6 1014.3 - - - - - - - - -
10/01:00am 17.5 SSW 5 7 1014.8 - - - - - - - - -
10/12:30am 18.0 SSE 3 4 1015.1 - - - - - - - - -
10/12:00am 17.9 S 3 4 1015.3 - - - - - - - - -
 
Date/Time
EDT
Temp

°C
Wind Pressure Rain
since 9am
mm
Weather Cloud Vis
km
Sea
Height
m
Swell
Dir
 
Speed
knots
Gust
knots
hPa Trend Height
m
Period
s
Dir
09/11:30pm 18.2 SSW 4 5 1015.3 - - - - - - - - -
09/11:00pm 18.4 SSW 5 5 1015.5 - - - - - - - - -
09/10:30pm 18.8 S 3 4 1015.9 - - - - - - - - -
09/10:00pm 18.9 S 4 5 1016.2 - - - - - - - - -
09/09:30pm 19.3 ENE 1 1 1016.1 - - - - - - - - -
09/09:00pm 19.2 NE 1 2 1016.1 - - - - - - - - -
09/08:30pm 19.3 NW 1 2 1016.3 - - - - - - - - -
09/08:00pm 19.3 N 1 2 1016.3 - - - - - - - - -
09/07:30pm 19.3 N 2 3 1016.4 - - - - - - - - -
09/07:00pm 19.3 N 2 4 1016.5 - - - - - - - - -
09/06:30pm 19.3 N 3 5 1016.4 - - - - - - - - -
09/06:00pm 19.3 NNE 3 5 1016.8 - - - - - - - - -
09/05:30pm 19.3 NE 4 6 1016.9 - - - - - - - - -
09/05:00pm 19.3 NE 5 7 1017.2 - - - - - - - - -
09/04:30pm 19.4 NE 6 8 1017.4 - - - - - - - - -
09/04:00pm 19.6 ENE 5 9 1017.8 - - - - - - - - -
09/03:30pm 19.5 ENE 7 10 1018.0 - - - - - - - - -
09/03:00pm 19.7 E 7 11 1018.4 - - - - - - - - -
09/02:30pm 19.7 ENE 6 9 1018.9 - - - - - - - - -
09/02:00pm 19.8 ENE 5 8 1019.3 - - - - - - - - -
09/01:30pm 19.8 E 6 8 1019.5 - - - - - - - - -
09/01:00pm 19.9 ENE 6 10 1019.6 - - - - - - - - -
09/12:30pm 20.3 ESE 11 14 1019.9 - - - - - - - - -
09/12:00pm 20.3 ESE 12 15 1020.2 - - - - - - - - -
09/11:30am 20.4 ESE 12 15 1020.2 - - - - - - - - -
09/11:00am 20.3 ESE 12 14 1020.4 - - - - - - - - -
09/10:30am 20.3 ESE 12 15 1020.5 - - - - - - - - -
09/10:00am 20.3 ESE 13 17 1020.4 - - - - - - - - -
09/09:30am 20.2 SE 12 15 1020.5 - - - - - - - - -
09/09:00am 20.4 SE 12 20 1020.5 - - - - - - - - -
09/08:30am 19.2 S 11 13 1020.3 - - - - - - - - -
09/08:00am 18.8 S 12 15 1020.2 - - - - - - - - -
09/07:30am 18.4 S 11 12 1020.0 - - - - - - - - -
09/07:00am 18.6 S 8 10 1019.9 - - - - - - - - -
09/06:30am 18.5 S 8 12 1019.7 - - - - - - - - -
09/06:00am 18.3 S 10 11 1019.4 - - - - - - - - -
09/05:30am 18.4 SSW 9 13 1019.2 - - - - - - - - -
09/05:00am 18.4 S 10 12 1019.2 - - - - - - - - -
09/04:30am 18.3 S 11 14 1019.1 - - - - - - - - -
09/04:00am 17.9 SSW 11 13 1019.2 - - - - - - - - -
09/03:30am 17.2 SSW 10 12 1019.4 - - - - - - - - -
09/03:00am 17.4 SSW 9 12 1019.3 - - - - - - - - -
09/02:30am 17.7 SSW 8 12 1019.3 - - - - - - - - -
09/02:00am 17.6 SSW 12 15 1019.2 - - - - - - - - -
09/01:30am 18.0 SSW 13 16 1019.1 - - - - - - - - -
09/01:00am 18.3 SSW 14 18 1019.0 - - - - - - - - -
09/12:30am 18.5 SSW 13 17 1019.0 - - - - - - - - -
09/12:00am 18.5 SSW 14 20 1018.9 - - - - - - - - -
 
Date/Time
EDT
Temp

°C
Wind Pressure Rain
since 9am
mm
Weather Cloud Vis
km
Sea
Height
m
Swell
Dir
 
Speed
knots
Gust
knots
hPa Trend Height
m
Period
s
Dir
08/11:30pm 18.3 SSW 16 27 1018.7 - - - - - - - - -
08/11:21pm 18.4 SSW 16 27 1018.7 - - - - - - - - -
08/11:00pm 18.4 SSW 18 26 1018.6 - - - - - - - - -
08/10:30pm 18.6 SSW 18 25 1018.7 - - - - - - - - -
08/10:00pm 19.0 SW 14 22 1018.7 - - - - - - - - -
08/09:30pm 19.4 SW 14 24 1018.8 - - - - - - - - -
08/09:00pm 20.0 SW 16 24 1018.3 - - - - - - - - -
08/08:43pm 20.5 SW 16 26 1018.3 - - - - - - - - -
08/08:30pm 21.0 SW 15 24 1018.1 - - - - - - - - -
08/08:00pm 22.2 SW 12 19 1018.1 - - - - - - - - -
08/07:30pm 23.5 WSW 12 18 1017.8 - - - - - - - - -
08/07:00pm 24.3 WSW 13 18 1017.5 - - - - - - - - -
08/06:30pm 24.9 SSW 16 23 1017.1 - - - - - - - - -
08/06:00pm 25.7 SSW 15 20 1016.9 - - - - - - - - -
08/05:30pm 26.2 SSW 14 18 1016.6 - - - - - - - - -
08/05:00pm 26.5 SW 12 17 1016.8 - - - - - - - - -
08/04:30pm 26.3 SSW 13 19 1016.7 - - - - - - - - -
08/04:00pm 26.9 SW 10 15 1016.8 - - - - - - - - -
08/03:30pm 26.5 SW 8 14 1017.0 - - - - - - - - -
08/03:00pm 26.2 SW 10 18 1017.2 - - - - - - - - -
08/02:30pm 25.4 SSW 11 17 1017.4 - - - - - - - - -
08/02:00pm 25.2 SW 8 14 1017.7 - - - - - - - - -
08/01:30pm 24.1 SW 8 15 1017.9 - - - - - - - - -
08/01:00pm 23.8 SW 10 16 1018.2 - - - - - - - - -
08/12:30pm 23.4 SW 11 22 1018.4 - - - - - - - - -
08/12:00pm 22.6 SW 10 19 1018.5 - - - - - - - - -
08/11:30am 22.0 SW 10 17 1018.7 - - - - - - - - -
08/11:00am 21.7 SW 11 17 1018.8 - - - - - - - - -
08/10:30am 21.7 SSW 8 15 1018.8 - - - - - - - - -
08/10:00am 21.0 SW 14 21 1019.0 - - - - - - - - -
08/09:30am 20.4 WSW 9 15 1018.8 - - - - - - - - -
08/09:00am 20.2 W 6 11 1018.8 - - - - - - - - -
08/08:30am 19.4 WSW 7 12 1018.8 - - - - - - - - -
08/08:00am 18.8 WSW 6 9 1018.6 - - - - - - - - -
08/07:30am 18.3 WSW 4 10 1018.3 - - - - - - - - -
08/07:00am 18.2 WSW 2 5 1018.0 - - - - - - - - -
08/06:30am 18.3 NE 1 3 1017.6 - - - - - - - - -
08/06:00am 18.0 SSE 3 5 1017.3 - - - - - - - - -
08/05:30am 18.1 WSW 1 3 1017.2 - - - - - - - - -
08/05:00am 18.4 SW 1 3 1017.1 - - - - - - - - -
08/04:30am 18.2 S 4 6 1017.1 - - - - - - - - -
08/04:00am 18.0 SSW 4 5 1017.2 - - - - - - - - -
08/03:30am 18.3 SE 1 3 1017.2 - - - - - - - - -
08/03:00am 18.2 S 2 3 1017.3 - - - - - - - - -
08/02:30am 18.4 ENE 2 3 1017.3 - - - - - - - - -
08/02:00am 17.7 ESE 3 5 1017.4 - - - - - - - - -
08/01:30am 18.1 S 3 4 1017.5 - - - - - - - - -
08/01:00am 18.4 SW 4 5 1017.7 - - - - - - - - -
08/12:30am 19.4 WNW 2 5 1017.4 - - - - - - - - -
08/12:00am 19.4 SW 2 4 1017.6 - - - - - - - - -
 
Date/Time
EDT
Temp

°C
Wind Pressure Rain
since 9am
mm
Weather Cloud Vis
km
Sea
Height
m
Swell
Dir
 
Speed
knots
Gust
knots
hPa Trend Height
m
Period
s
Dir
07/11:30pm 19.8 W 3 6 1017.7 - - - - - - - - -
07/11:00pm 20.1 WNW 6 9 1017.7 - - - - - - - - -
07/10:30pm 20.3 WNW 8 10 1017.7 - - - - - - - - -
07/10:00pm 20.3 NW 8 11 1017.8 - - - - - - - - -
07/09:30pm 20.4 NW 9 11 1017.5 - - - - - - - - -
07/09:00pm 20.4 NW 9 10 1017.2 - - - - - - - - -
07/08:30pm 20.5 NW 8 10 1016.9 - - - - - - - - -
07/08:00pm 20.5 NW 8 9 1016.8 - - - - - - - - -
07/07:30pm 20.6 NW 8 10 1016.7 - - - - - - - - -
07/07:00pm 20.5 NW 7 9 1016.6 - - - - - - - - -
07/06:30pm 20.4 NNW 7 9 1016.3 - - - - - - - - -
07/06:00pm 20.5 N 8 9 1016.4 - - - - - - - - -
07/05:30pm 20.4 N 8 9 1016.4 - - - - - - - - -
07/05:00pm 20.3 N 9 10 1016.4 - - - - - - - - -
07/04:30pm 20.2 N 9 10 1016.6 - - - - - - - - -
07/04:00pm 20.2 N 9 11 1016.8 - - - - - - - - -

Other Formats:

Comma delimited format used in spreadsheet applications
http://www.bom.gov.au/fwo/IDT60701/IDT60701.95963.axf

JavaScript Object Notation format (JSON) in row-major order
http://www.bom.gov.au/fwo/IDT60701/IDT60701.95963.json